sensor_id;sensor_type;location;lat;lon;timestamp;temperature;humidity
7192;DHT22;3637;51.494;11.958;2022-09-27T00:02:44;13.60;95.90
7192;DHT22;3637;51.494;11.958;2022-09-27T00:05:48;13.50;96.20
7192;DHT22;3637;51.494;11.958;2022-09-27T00:08:50;13.60;96.60
7192;DHT22;3637;51.494;11.958;2022-09-27T00:11:52;13.60;96.80
7192;DHT22;3637;51.494;11.958;2022-09-27T00:14:53;13.60;96.60
7192;DHT22;3637;51.494;11.958;2022-09-27T00:17:55;13.60;96.40
7192;DHT22;3637;51.494;11.958;2022-09-27T00:21:05;13.50;96.30
7192;DHT22;3637;51.494;11.958;2022-09-27T00:24:11;13.50;96.40
7192;DHT22;3637;51.494;11.958;2022-09-27T00:27:13;13.60;96.50
7192;DHT22;3637;51.494;11.958;2022-09-27T00:30:14;13.50;96.50
7192;DHT22;3637;51.494;11.958;2022-09-27T00:33:16;13.60;96.70
7192;DHT22;3637;51.494;11.958;2022-09-27T00:36:20;13.50;96.70
7192;DHT22;3637;51.494;11.958;2022-09-27T00:39:22;13.50;96.70
7192;DHT22;3637;51.494;11.958;2022-09-27T00:42:24;13.50;96.90
7192;DHT22;3637;51.494;11.958;2022-09-27T00:45:26;13.60;96.70
7192;DHT22;3637;51.494;11.958;2022-09-27T00:48:30;13.60;96.80
7192;DHT22;3637;51.494;11.958;2022-09-27T00:51:37;13.60;96.80
7192;DHT22;3637;51.494;11.958;2022-09-27T00:54:42;13.60;96.50
7192;DHT22;3637;51.494;11.958;2022-09-27T00:57:45;13.60;96.50
7192;DHT22;3637;51.494;11.958;2022-09-27T01:00:52;13.60;96.60
7192;DHT22;3637;51.494;11.958;2022-09-27T01:03:58;13.60;96.60
7192;DHT22;3637;51.494;11.958;2022-09-27T01:07:02;13.60;96.70
7192;DHT22;3637;51.494;11.958;2022-09-27T01:10:05;13.60;96.70
7192;DHT22;3637;51.494;11.958;2022-09-27T01:13:12;13.60;96.40
7192;DHT22;3637;51.494;11.958;2022-09-27T01:16:25;13.60;96.50
7192;DHT22;3637;51.494;11.958;2022-09-27T01:27:04;13.50;96.50
7192;DHT22;3637;51.494;11.958;2022-09-27T01:30:20;13.60;96.40
7192;DHT22;3637;51.494;11.958;2022-09-27T01:33:36;13.50;96.30
7192;DHT22;3637;51.494;11.958;2022-09-27T01:36:45;13.50;96.10
7192;DHT22;3637;51.494;11.958;2022-09-27T01:39:58;13.40;96.20
7192;DHT22;3637;51.494;11.958;2022-09-27T01:43:05;13.50;96.30
7192;DHT22;3637;51.494;11.958;2022-09-27T01:46:12;13.50;96.20
7192;DHT22;3637;51.494;11.958;2022-09-27T01:49:22;13.50;96.30
7192;DHT22;3637;51.494;11.958;2022-09-27T01:52:28;13.50;96.20
7192;DHT22;3637;51.494;11.958;2022-09-27T01:55:35;13.40;96.60
7192;DHT22;3637;51.494;11.958;2022-09-27T01:58:41;13.40;96.30
7192;DHT22;3637;51.494;11.958;2022-09-27T02:01:48;13.50;96.40
7192;DHT22;3637;51.494;11.958;2022-09-27T02:04:52;13.50;96.30
7192;DHT22;3637;51.494;11.958;2022-09-27T02:07:58;13.50;96.40
7192;DHT22;3637;51.494;11.958;2022-09-27T02:11:07;13.40;96.60
7192;DHT22;3637;51.494;11.958;2022-09-27T02:14:14;13.40;96.50
7192;DHT22;3637;51.494;11.958;2022-09-27T02:17:24;13.30;96.60
7192;DHT22;3637;51.494;11.958;2022-09-27T02:20:34;13.30;96.80
7192;DHT22;3637;51.494;11.958;2022-09-27T02:23:40;13.30;96.70
7192;DHT22;3637;51.494;11.958;2022-09-27T02:26:45;13.30;96.90
7192;DHT22;3637;51.494;11.958;2022-09-27T02:29:52;13.30;96.90
7192;DHT22;3637;51.494;11.958;2022-09-27T02:32:59;13.30;96.80
7192;DHT22;3637;51.494;11.958;2022-09-27T02:36:01;13.30;97.00
7192;DHT22;3637;51.494;11.958;2022-09-27T02:39:03;13.30;97.80
7192;DHT22;3637;51.494;11.958;2022-09-27T02:42:06;13.20;98.20
7192;DHT22;3637;51.494;11.958;2022-09-27T02:45:09;13.20;98.40
7192;DHT22;3637;51.494;11.958;2022-09-27T02:48:18;13.10;98.30
7192;DHT22;3637;51.494;11.958;2022-09-27T02:51:32;13.10;98.70
7192;DHT22;3637;51.494;11.958;2022-09-27T02:54:43;13.10;98.90
7192;DHT22;3637;51.494;11.958;2022-09-27T02:57:56;13.20;98.80
7192;DHT22;3637;51.494;11.958;2022-09-27T03:01:05;13.20;98.60
7192;DHT22;3637;51.494;11.958;2022-09-27T03:04:16;13.20;98.70
7192;DHT22;3637;51.494;11.958;2022-09-27T03:07:20;13.10;98.60
7192;DHT22;3637;51.494;11.958;2022-09-27T03:10:24;13.10;98.50
7192;DHT22;3637;51.494;11.958;2022-09-27T03:13:26;13.20;98.30
7192;DHT22;3637;51.494;11.958;2022-09-27T03:16:28;13.10;98.40
7192;DHT22;3637;51.494;11.958;2022-09-27T03:19:31;13.20;98.20
7192;DHT22;3637;51.494;11.958;2022-09-27T03:22:33;13.20;98.20
7192;DHT22;3637;51.494;11.958;2022-09-27T03:25:35;13.20;98.30
7192;DHT22;3637;51.494;11.958;2022-09-27T03:28:37;13.20;98.40
7192;DHT22;3637;51.494;11.958;2022-09-27T03:31:38;13.20;98.20
7192;DHT22;3637;51.494;11.958;2022-09-27T03:34:42;13.10;98.40
7192;DHT22;3637;51.494;11.958;2022-09-27T03:37:44;13.10;98.70
7192;DHT22;3637;51.494;11.958;2022-09-27T03:40:46;13.10;98.50
7192;DHT22;3637;51.494;11.958;2022-09-27T03:43:48;13.10;98.50
7192;DHT22;3637;51.494;11.958;2022-09-27T03:46:50;13.10;98.70
7192;DHT22;3637;51.494;11.958;2022-09-27T03:49:53;13.10;98.60
7192;DHT22;3637;51.494;11.958;2022-09-27T03:52:55;13.10;98.80
7192;DHT22;3637;51.494;11.958;2022-09-27T03:55:57;13.20;98.80
7192;DHT22;3637;51.494;11.958;2022-09-27T03:58:58;13.10;99.00
7192;DHT22;3637;51.494;11.958;2022-09-27T04:02:00;13.10;99.40
7192;DHT22;3637;51.494;11.958;2022-09-27T04:05:04;13.00;99.40
7192;DHT22;3637;51.494;11.958;2022-09-27T04:08:06;13.10;99.40
7192;DHT22;3637;51.494;11.958;2022-09-27T04:11:10;13.00;99.40
7192;DHT22;3637;51.494;11.958;2022-09-27T04:14:12;13.00;99.40
7192;DHT22;3637;51.494;11.958;2022-09-27T04:17:14;13.10;99.30
7192;DHT22;3637;51.494;11.958;2022-09-27T04:20:17;13.00;99.40
7192;DHT22;3637;51.494;11.958;2022-09-27T04:23:19;13.10;99.40
7192;DHT22;3637;51.494;11.958;2022-09-27T04:26:21;13.10;99.50
7192;DHT22;3637;51.494;11.958;2022-09-27T04:29:23;13.00;99.50
7192;DHT22;3637;51.494;11.958;2022-09-27T04:32:25;13.00;99.60
7192;DHT22;3637;51.494;11.958;2022-09-27T04:35:28;13.00;99.80
7192;DHT22;3637;51.494;11.958;2022-09-27T04:38:48;13.00;99.50
7192;DHT22;3637;51.494;11.958;2022-09-27T04:41:49;13.00;99.90
7192;DHT22;3637;51.494;11.958;2022-09-27T04:44:52;13.10;99.80
7192;DHT22;3637;51.494;11.958;2022-09-27T04:47:54;13.00;99.80
7192;DHT22;3637;51.494;11.958;2022-09-27T04:50:58;13.00;99.90
7192;DHT22;3637;51.494;11.958;2022-09-27T04:54:01;13.00;99.90
7192;DHT22;3637;51.494;11.958;2022-09-27T04:57:04;13.00;99.90
7192;DHT22;3637;51.494;11.958;2022-09-27T05:00:07;13.00;99.90
7192;DHT22;3637;51.494;11.958;2022-09-27T05:03:09;12.90;99.90
7192;DHT22;3637;51.494;11.958;2022-09-27T05:06:12;13.00;99.90
7192;DHT22;3637;51.494;11.958;2022-09-27T05:09:14;13.00;99.90
7192;DHT22;3637;51.494;11.958;2022-09-27T05:12:16;13.00;99.90
7192;DHT22;3637;51.494;11.958;2022-09-27T05:15:18;13.00;99.90
7192;DHT22;3637;51.494;11.958;2022-09-27T05:18:19;13.00;99.90
7192;DHT22;3637;51.494;11.958;2022-09-27T05:21:23;13.10;99.90
7192;DHT22;3637;51.494;11.958;2022-09-27T05:24:24;13.10;99.90
7192;DHT22;3637;51.494;11.958;2022-09-27T05:27:27;13.10;99.90
7192;DHT22;3637;51.494;11.958;2022-09-27T05:30:30;13.10;99.90
7192;DHT22;3637;51.494;11.958;2022-09-27T05:33:32;13.10;99.90
7192;DHT22;3637;51.494;11.958;2022-09-27T05:36:35;13.10;99.90
7192;DHT22;3637;51.494;11.958;2022-09-27T05:39:37;13.00;99.90
7192;DHT22;3637;51.494;11.958;2022-09-27T05:42:39;12.90;99.90
7192;DHT22;3637;51.494;11.958;2022-09-27T05:45:41;12.90;99.90
7192;DHT22;3637;51.494;11.958;2022-09-27T05:48:43;12.90;99.90
7192;DHT22;3637;51.494;11.958;2022-09-27T05:51:46;12.90;99.90
7192;DHT22;3637;51.494;11.958;2022-09-27T05:54:48;12.90;99.90
7192;DHT22;3637;51.494;11.958;2022-09-27T05:57:54;12.90;99.90
7192;DHT22;3637;51.494;11.958;2022-09-27T06:00:56;12.90;99.90
7192;DHT22;3637;51.494;11.958;2022-09-27T06:03:58;12.90;99.90
7192;DHT22;3637;51.494;11.958;2022-09-27T06:07:01;12.90;99.90
7192;DHT22;3637;51.494;11.958;2022-09-27T06:10:04;13.00;99.90
7192;DHT22;3637;51.494;11.958;2022-09-27T06:13:07;13.00;99.90
7192;DHT22;3637;51.494;11.958;2022-09-27T06:16:10;13.00;99.90
7192;DHT22;3637;51.494;11.958;2022-09-27T06:19:12;13.00;99.90
7192;DHT22;3637;51.494;11.958;2022-09-27T06:22:15;13.00;99.90
7192;DHT22;3637;51.494;11.958;2022-09-27T06:25:17;13.00;99.90
7192;DHT22;3637;51.494;11.958;2022-09-27T06:28:20;13.00;99.90
7192;DHT22;3637;51.494;11.958;2022-09-27T06:31:23;13.00;99.90
7192;DHT22;3637;51.494;11.958;2022-09-27T06:34:24;13.00;99.90
7192;DHT22;3637;51.494;11.958;2022-09-27T06:37:28;13.00;99.90
7192;DHT22;3637;51.494;11.958;2022-09-27T06:40:30;13.10;99.90
7192;DHT22;3637;51.494;11.958;2022-09-27T06:43:32;13.00;99.90
7192;DHT22;3637;51.494;11.958;2022-09-27T06:46:33;13.10;99.90
7192;DHT22;3637;51.494;11.958;2022-09-27T06:49:37;13.20;99.90
7192;DHT22;3637;51.494;11.958;2022-09-27T06:52:47;13.10;99.90
7192;DHT22;3637;51.494;11.958;2022-09-27T06:55:49;13.20;99.90
7192;DHT22;3637;51.494;11.958;2022-09-27T06:58:51;13.30;99.60
7192;DHT22;3637;51.494;11.958;2022-09-27T07:02:10;13.30;99.50
7192;DHT22;3637;51.494;11.958;2022-09-27T07:05:13;13.30;99.60
7192;DHT22;3637;51.494;11.958;2022-09-27T07:08:16;13.30;99.60
7192;DHT22;3637;51.494;11.958;2022-09-27T07:11:19;13.40;98.90
7192;DHT22;3637;51.494;11.958;2022-09-27T07:14:22;13.50;98.90
7192;DHT22;3637;51.494;11.958;2022-09-27T07:17:26;13.60;98.90
7192;DHT22;3637;51.494;11.958;2022-09-27T07:20:28;13.60;98.70
7192;DHT22;3637;51.494;11.958;2022-09-27T07:23:31;13.50;98.70
7192;DHT22;3637;51.494;11.958;2022-09-27T07:26:33;13.60;98.60
7192;DHT22;3637;51.494;11.958;2022-09-27T07:29:35;13.60;98.70
7192;DHT22;3637;51.494;11.958;2022-09-27T07:32:37;13.50;98.40
7192;DHT22;3637;51.494;11.958;2022-09-27T07:35:39;13.60;98.20
7192;DHT22;3637;51.494;11.958;2022-09-27T07:38:42;13.60;97.90
7192;DHT22;3637;51.494;11.958;2022-09-27T07:41:44;13.50;97.80
7192;DHT22;3637;51.494;11.958;2022-09-27T07:44:46;13.50;97.30
7192;DHT22;3637;51.494;11.958;2022-09-27T07:47:47;13.50;97.30
7192;DHT22;3637;51.494;11.958;2022-09-27T07:50:51;13.50;97.60
7192;DHT22;3637;51.494;11.958;2022-09-27T07:53:54;13.40;97.10
7192;DHT22;3637;51.494;11.958;2022-09-27T07:56:56;13.30;97.20
7192;DHT22;3637;51.494;11.958;2022-09-27T07:59:57;13.30;97.50
7192;DHT22;3637;51.494;11.958;2022-09-27T08:03:03;13.30;97.50
7192;DHT22;3637;51.494;11.958;2022-09-27T08:06:05;13.30;97.90
7192;DHT22;3637;51.494;11.958;2022-09-27T08:09:12;13.20;97.90
7192;DHT22;3637;51.494;11.958;2022-09-27T08:12:15;13.20;98.10
7192;DHT22;3637;51.494;11.958;2022-09-27T08:15:16;13.10;98.30
7192;DHT22;3637;51.494;11.958;2022-09-27T08:18:18;13.10;98.50
7192;DHT22;3637;51.494;11.958;2022-09-27T08:21:21;13.10;98.80
7192;DHT22;3637;51.494;11.958;2022-09-27T08:24:24;13.10;98.80
7192;DHT22;3637;51.494;11.958;2022-09-27T08:27:26;13.10;99.10
7192;DHT22;3637;51.494;11.958;2022-09-27T08:30:28;13.20;99.00
7192;DHT22;3637;51.494;11.958;2022-09-27T08:33:31;13.20;98.50
7192;DHT22;3637;51.494;11.958;2022-09-27T08:36:33;13.10;98.20
7192;DHT22;3637;51.494;11.958;2022-09-27T08:39:39;13.10;97.80
7192;DHT22;3637;51.494;11.958;2022-09-27T08:42:45;13.20;97.30
7192;DHT22;3637;51.494;11.958;2022-09-27T08:46:01;13.10;97.20
7192;DHT22;3637;51.494;11.958;2022-09-27T08:49:09;13.00;97.20
7192;DHT22;3637;51.494;11.958;2022-09-27T08:52:16;13.10;97.20
7192;DHT22;3637;51.494;11.958;2022-09-27T08:55:25;13.10;97.20
7192;DHT22;3637;51.494;11.958;2022-09-27T08:58:31;13.00;97.00
7192;DHT22;3637;51.494;11.958;2022-09-27T09:01:35;13.00;96.80
7192;DHT22;3637;51.494;11.958;2022-09-27T09:04:39;12.90;97.20
7192;DHT22;3637;51.494;11.958;2022-09-27T09:07:55;12.80;98.20
7192;DHT22;3637;51.494;11.958;2022-09-27T09:11:08;12.40;99.90
7192;DHT22;3637;51.494;11.958;2022-09-27T09:14:47;12.10;99.90
7192;DHT22;3637;51.494;11.958;2022-09-27T09:18:10;11.60;99.90
7192;DHT22;3637;51.494;11.958;2022-09-27T09:21:22;11.60;99.90
7192;DHT22;3637;51.494;11.958;2022-09-27T09:24:37;11.60;99.90
7192;DHT22;3637;51.494;11.958;2022-09-27T09:27:49;11.60;99.90
7192;DHT22;3637;51.494;11.958;2022-09-27T09:30:58;11.60;99.90
7192;DHT22;3637;51.494;11.958;2022-09-27T09:34:08;11.80;99.90
7192;DHT22;3637;51.494;11.958;2022-09-27T09:37:17;11.90;99.90
7192;DHT22;3637;51.494;11.958;2022-09-27T09:40:23;12.00;99.90
7192;DHT22;3637;51.494;11.958;2022-09-27T09:43:31;12.00;99.90
7192;DHT22;3637;51.494;11.958;2022-09-27T09:46:36;12.10;99.90
7192;DHT22;3637;51.494;11.958;2022-09-27T09:49:43;12.30;99.90
7192;DHT22;3637;51.494;11.958;2022-09-27T09:52:48;12.30;99.90
7192;DHT22;3637;51.494;11.958;2022-09-27T09:55:53;12.30;99.90
7192;DHT22;3637;51.494;11.958;2022-09-27T09:59:00;12.30;99.90
7192;DHT22;3637;51.494;11.958;2022-09-27T10:02:16;12.40;99.90
7192;DHT22;3637;51.494;11.958;2022-09-27T10:05:21;12.90;99.90
7192;DHT22;3637;51.494;11.958;2022-09-27T10:08:23;13.30;99.90
7192;DHT22;3637;51.494;11.958;2022-09-27T10:11:28;13.60;99.90
7192;DHT22;3637;51.494;11.958;2022-09-27T10:14:34;14.00;99.90
7192;DHT22;3637;51.494;11.958;2022-09-27T10:17:40;14.20;99.90
7192;DHT22;3637;51.494;11.958;2022-09-27T10:20:46;14.50;99.90
7192;DHT22;3637;51.494;11.958;2022-09-27T10:24:07;14.60;99.60
7192;DHT22;3637;51.494;11.958;2022-09-27T10:27:09;14.80;99.20
7192;DHT22;3637;51.494;11.958;2022-09-27T10:30:23;14.90;98.40
7192;DHT22;3637;51.494;11.958;2022-09-27T10:33:26;14.40;99.90
7192;DHT22;3637;51.494;11.958;2022-09-27T10:36:29;13.90;99.90
7192;DHT22;3637;51.494;11.958;2022-09-27T10:39:31;13.60;99.90
7192;DHT22;3637;51.494;11.958;2022-09-27T10:42:34;13.40;99.90
7192;DHT22;3637;51.494;11.958;2022-09-27T10:45:37;13.60;99.90
7192;DHT22;3637;51.494;11.958;2022-09-27T10:48:39;13.30;99.90
7192;DHT22;3637;51.494;11.958;2022-09-27T10:51:42;13.40;99.90
7192;DHT22;3637;51.494;11.958;2022-09-27T10:54:51;13.20;99.90
7192;DHT22;3637;51.494;11.958;2022-09-27T10:57:53;13.10;99.90
7192;DHT22;3637;51.494;11.958;2022-09-27T11:00:58;13.20;99.90
7192;DHT22;3637;51.494;11.958;2022-09-27T11:04:02;13.20;99.90
7192;DHT22;3637;51.494;11.958;2022-09-27T11:07:10;13.20;99.90
7192;DHT22;3637;51.494;11.958;2022-09-27T11:10:20;13.20;99.90
7192;DHT22;3637;51.494;11.958;2022-09-27T11:13:24;13.10;99.90
7192;DHT22;3637;51.494;11.958;2022-09-27T11:16:38;13.20;99.90
7192;DHT22;3637;51.494;11.958;2022-09-27T11:19:57;13.20;99.90
7192;DHT22;3637;51.494;11.958;2022-09-27T11:23:14;13.10;99.90
7192;DHT22;3637;51.494;11.958;2022-09-27T11:26:22;13.10;99.90
7192;DHT22;3637;51.494;11.958;2022-09-27T11:29:28;13.10;99.90
7192;DHT22;3637;51.494;11.958;2022-09-27T11:32:35;13.10;99.90
7192;DHT22;3637;51.494;11.958;2022-09-27T11:35:44;13.10;99.90
7192;DHT22;3637;51.494;11.958;2022-09-27T11:38:55;13.20;99.90
7192;DHT22;3637;51.494;11.958;2022-09-27T11:42:05;13.20;99.90
7192;DHT22;3637;51.494;11.958;2022-09-27T11:45:16;13.30;99.90
7192;DHT22;3637;51.494;11.958;2022-09-27T11:48:24;13.20;99.90
7192;DHT22;3637;51.494;11.958;2022-09-27T11:51:29;13.10;99.90
7192;DHT22;3637;51.494;11.958;2022-09-27T11:54:43;13.30;99.70
7192;DHT22;3637;51.494;11.958;2022-09-27T11:57:50;13.20;99.90
7192;DHT22;3637;51.494;11.958;2022-09-27T12:00:56;13.30;99.90
7192;DHT22;3637;51.494;11.958;2022-09-27T12:07:25;13.30;99.70
7192;DHT22;3637;51.494;11.958;2022-09-27T12:10:31;13.30;98.20
7192;DHT22;3637;51.494;11.958;2022-09-27T12:13:35;13.40;98.30
7192;DHT22;3637;51.494;11.958;2022-09-27T12:16:38;13.50;98.30
7192;DHT22;3637;51.494;11.958;2022-09-27T12:19:41;13.50;97.90
7192;DHT22;3637;51.494;11.958;2022-09-27T12:22:48;13.70;98.10
7192;DHT22;3637;51.494;11.958;2022-09-27T12:25:52;13.70;96.70
7192;DHT22;3637;51.494;11.958;2022-09-27T12:28:57;13.70;96.50
7192;DHT22;3637;51.494;11.958;2022-09-27T12:32:01;14.00;96.40
7192;DHT22;3637;51.494;11.958;2022-09-27T12:35:06;13.80;96.60
7192;DHT22;3637;51.494;11.958;2022-09-27T12:38:13;14.00;96.00
7192;DHT22;3637;51.494;11.958;2022-09-27T12:41:16;14.00;95.40
7192;DHT22;3637;51.494;11.958;2022-09-27T12:44:18;14.10;94.90
7192;DHT22;3637;51.494;11.958;2022-09-27T12:47:24;14.20;94.30
7192;DHT22;3637;51.494;11.958;2022-09-27T12:50:32;14.50;93.10
7192;DHT22;3637;51.494;11.958;2022-09-27T12:53:40;14.40;91.60
7192;DHT22;3637;51.494;11.958;2022-09-27T12:56:45;14.50;91.70
7192;DHT22;3637;51.494;11.958;2022-09-27T12:59:54;14.60;91.10
7192;DHT22;3637;51.494;11.958;2022-09-27T13:03:07;14.90;91.60
7192;DHT22;3637;51.494;11.958;2022-09-27T13:06:17;15.20;90.30
7192;DHT22;3637;51.494;11.958;2022-09-27T13:12:42;14.70;89.60
7192;DHT22;3637;51.494;11.958;2022-09-27T13:15:53;14.60;89.10
7192;DHT22;3637;51.494;11.958;2022-09-27T13:18:55;14.50;90.70
7192;DHT22;3637;51.494;11.958;2022-09-27T13:22:00;14.40;88.90
7192;DHT22;3637;51.494;11.958;2022-09-27T13:28:31;14.30;90.30
7192;DHT22;3637;51.494;11.958;2022-09-27T13:35:05;14.40;90.10
7192;DHT22;3637;51.494;11.958;2022-09-27T13:38:17;14.40;89.40
7192;DHT22;3637;51.494;11.958;2022-09-27T13:41:21;14.40;88.00
7192;DHT22;3637;51.494;11.958;2022-09-27T13:44:25;14.50;89.80
7192;DHT22;3637;51.494;11.958;2022-09-27T13:47:32;14.50;89.70
7192;DHT22;3637;51.494;11.958;2022-09-27T13:50:37;14.50;88.10
7192;DHT22;3637;51.494;11.958;2022-09-27T13:53:40;14.40;87.20
7192;DHT22;3637;51.494;11.958;2022-09-27T13:56:47;14.30;88.60
7192;DHT22;3637;51.494;11.958;2022-09-27T13:59:50;14.20;89.00
7192;DHT22;3637;51.494;11.958;2022-09-27T14:02:54;14.20;87.60
7192;DHT22;3637;51.494;11.958;2022-09-27T14:05:58;14.20;85.80
7192;DHT22;3637;51.494;11.958;2022-09-27T14:09:02;14.00;87.80
7192;DHT22;3637;51.494;11.958;2022-09-27T14:12:06;14.20;87.30
7192;DHT22;3637;51.494;11.958;2022-09-27T14:15:16;13.70;85.80
7192;DHT22;3637;51.494;11.958;2022-09-27T14:18:18;13.80;85.30
7192;DHT22;3637;51.494;11.958;2022-09-27T14:21:24;13.70;83.60
7192;DHT22;3637;51.494;11.958;2022-09-27T14:24:28;13.90;84.30
7192;DHT22;3637;51.494;11.958;2022-09-27T14:27:33;13.60;84.30
7192;DHT22;3637;51.494;11.958;2022-09-27T14:30:37;13.70;84.60
7192;DHT22;3637;51.494;11.958;2022-09-27T14:33:38;13.70;83.40
7192;DHT22;3637;51.494;11.958;2022-09-27T14:36:41;13.70;84.80
7192;DHT22;3637;51.494;11.958;2022-09-27T14:40:03;13.90;83.70
7192;DHT22;3637;51.494;11.958;2022-09-27T14:43:09;13.70;83.80
7192;DHT22;3637;51.494;11.958;2022-09-27T14:46:24;13.70;84.40
7192;DHT22;3637;51.494;11.958;2022-09-27T14:49:26;13.70;85.10
7192;DHT22;3637;51.494;11.958;2022-09-27T14:52:29;13.80;85.60
7192;DHT22;3637;51.494;11.958;2022-09-27T14:55:32;13.80;86.40
7192;DHT22;3637;51.494;11.958;2022-09-27T14:58:34;13.70;85.50
7192;DHT22;3637;51.494;11.958;2022-09-27T15:01:37;13.60;86.90
7192;DHT22;3637;51.494;11.958;2022-09-27T15:04:41;13.70;87.10
7192;DHT22;3637;51.494;11.958;2022-09-27T15:07:47;13.70;88.20
7192;DHT22;3637;51.494;11.958;2022-09-27T15:10:49;13.70;88.50
7192;DHT22;3637;51.494;11.958;2022-09-27T15:13:50;13.70;88.70
7192;DHT22;3637;51.494;11.958;2022-09-27T15:16:55;13.60;87.90
7192;DHT22;3637;51.494;11.958;2022-09-27T15:20:01;13.60;89.60
7192;DHT22;3637;51.494;11.958;2022-09-27T15:23:03;13.60;89.70
7192;DHT22;3637;51.494;11.958;2022-09-27T15:26:07;13.60;89.20
7192;DHT22;3637;51.494;11.958;2022-09-27T15:29:15;13.70;90.20
7192;DHT22;3637;51.494;11.958;2022-09-27T15:32:20;13.60;90.00
7192;DHT22;3637;51.494;11.958;2022-09-27T15:35:24;13.50;90.10
7192;DHT22;3637;51.494;11.958;2022-09-27T15:38:26;13.40;89.70
7192;DHT22;3637;51.494;11.958;2022-09-27T15:41:28;13.40;88.30
7192;DHT22;3637;51.494;11.958;2022-09-27T15:44:50;13.40;88.70
7192;DHT22;3637;51.494;11.958;2022-09-27T15:47:54;13.40;88.10
7192;DHT22;3637;51.494;11.958;2022-09-27T15:50:55;13.40;88.80
7192;DHT22;3637;51.494;11.958;2022-09-27T15:53:57;13.40;88.70
7192;DHT22;3637;51.494;11.958;2022-09-27T15:56:59;13.50;88.90
7192;DHT22;3637;51.494;11.958;2022-09-27T16:00:03;13.40;88.20
7192;DHT22;3637;51.494;11.958;2022-09-27T16:03:08;13.40;88.50
7192;DHT22;3637;51.494;11.958;2022-09-27T16:06:10;13.60;89.00
7192;DHT22;3637;51.494;11.958;2022-09-27T16:09:14;13.40;88.70
7192;DHT22;3637;51.494;11.958;2022-09-27T16:12:19;13.50;89.50
7192;DHT22;3637;51.494;11.958;2022-09-27T16:15:20;13.50;89.70
7192;DHT22;3637;51.494;11.958;2022-09-27T16:18:23;13.50;90.20
7192;DHT22;3637;51.494;11.958;2022-09-27T16:21:25;13.50;89.40
7192;DHT22;3637;51.494;11.958;2022-09-27T16:24:27;13.50;89.70
7192;DHT22;3637;51.494;11.958;2022-09-27T16:27:28;13.50;89.60
7192;DHT22;3637;51.494;11.958;2022-09-27T16:30:30;13.40;89.70
7192;DHT22;3637;51.494;11.958;2022-09-27T16:33:37;13.40;90.10
7192;DHT22;3637;51.494;11.958;2022-09-27T16:36:40;13.40;89.60
7192;DHT22;3637;51.494;11.958;2022-09-27T16:39:41;13.30;89.20
7192;DHT22;3637;51.494;11.958;2022-09-27T16:42:43;13.30;89.20
7192;DHT22;3637;51.494;11.958;2022-09-27T16:45:45;13.30;89.90
7192;DHT22;3637;51.494;11.958;2022-09-27T16:48:50;13.30;90.10
7192;DHT22;3637;51.494;11.958;2022-09-27T16:51:52;13.30;90.10
7192;DHT22;3637;51.494;11.958;2022-09-27T16:55:01;13.40;90.00
7192;DHT22;3637;51.494;11.958;2022-09-27T16:58:03;13.30;89.80
7192;DHT22;3637;51.494;11.958;2022-09-27T17:01:07;13.20;89.40
7192;DHT22;3637;51.494;11.958;2022-09-27T17:04:14;13.20;90.00
7192;DHT22;3637;51.494;11.958;2022-09-27T17:07:16;13.20;89.80
7192;DHT22;3637;51.494;11.958;2022-09-27T17:10:18;13.10;90.10
7192;DHT22;3637;51.494;11.958;2022-09-27T17:13:19;13.10;90.10
7192;DHT22;3637;51.494;11.958;2022-09-27T17:16:21;13.10;90.40
7192;DHT22;3637;51.494;11.958;2022-09-27T17:19:24;13.10;90.30
7192;DHT22;3637;51.494;11.958;2022-09-27T17:22:27;13.20;90.80
7192;DHT22;3637;51.494;11.958;2022-09-27T17:25:29;13.10;91.20
7192;DHT22;3637;51.494;11.958;2022-09-27T17:28:30;13.20;91.60
7192;DHT22;3637;51.494;11.958;2022-09-27T17:31:32;13.10;91.60
7192;DHT22;3637;51.494;11.958;2022-09-27T17:34:36;13.10;91.80
7192;DHT22;3637;51.494;11.958;2022-09-27T17:37:42;13.10;92.00
7192;DHT22;3637;51.494;11.958;2022-09-27T17:40:44;13.10;92.40
7192;DHT22;3637;51.494;11.958;2022-09-27T17:43:46;13.00;92.50
7192;DHT22;3637;51.494;11.958;2022-09-27T17:46:49;13.00;92.50
7192;DHT22;3637;51.494;11.958;2022-09-27T17:50:13;12.90;92.50
7192;DHT22;3637;51.494;11.958;2022-09-27T17:53:34;13.00;92.80
7192;DHT22;3637;51.494;11.958;2022-09-27T17:56:36;12.90;93.10
7192;DHT22;3637;51.494;11.958;2022-09-27T17:59:38;13.10;93.60
7192;DHT22;3637;51.494;11.958;2022-09-27T18:02:39;12.80;94.40
7192;DHT22;3637;51.494;11.958;2022-09-27T18:05:43;12.80;95.10
7192;DHT22;3637;51.494;11.958;2022-09-27T18:08:44;12.70;95.50
7192;DHT22;3637;51.494;11.958;2022-09-27T18:11:46;12.70;96.10
7192;DHT22;3637;51.494;11.958;2022-09-27T18:14:48;12.70;96.30
7192;DHT22;3637;51.494;11.958;2022-09-27T18:17:50;12.70;96.50
7192;DHT22;3637;51.494;11.958;2022-09-27T18:20:53;12.70;96.30
7192;DHT22;3637;51.494;11.958;2022-09-27T18:23:57;12.60;96.30
7192;DHT22;3637;51.494;11.958;2022-09-27T18:26:59;12.60;96.00
7192;DHT22;3637;51.494;11.958;2022-09-27T18:30:01;12.50;96.10
7192;DHT22;3637;51.494;11.958;2022-09-27T18:33:03;12.60;96.30
7192;DHT22;3637;51.494;11.958;2022-09-27T18:36:08;12.60;95.60
7192;DHT22;3637;51.494;11.958;2022-09-27T18:39:13;12.50;95.10
7192;DHT22;3637;51.494;11.958;2022-09-27T18:42:16;12.60;95.40
7192;DHT22;3637;51.494;11.958;2022-09-27T18:45:18;12.50;95.00
7192;DHT22;3637;51.494;11.958;2022-09-27T18:48:20;12.50;95.00
7192;DHT22;3637;51.494;11.958;2022-09-27T18:51:25;12.50;95.50
7192;DHT22;3637;51.494;11.958;2022-09-27T18:54:27;12.50;95.70
7192;DHT22;3637;51.494;11.958;2022-09-27T18:57:29;12.50;95.70
7192;DHT22;3637;51.494;11.958;2022-09-27T19:00:32;12.40;95.60
7192;DHT22;3637;51.494;11.958;2022-09-27T19:03:34;12.40;95.50
7192;DHT22;3637;51.494;11.958;2022-09-27T19:06:38;12.40;95.50
7192;DHT22;3637;51.494;11.958;2022-09-27T19:09:40;12.30;95.50
7192;DHT22;3637;51.494;11.958;2022-09-27T19:12:42;12.30;95.70
7192;DHT22;3637;51.494;11.958;2022-09-27T19:15:53;12.30;95.90
7192;DHT22;3637;51.494;11.958;2022-09-27T19:18:55;12.30;96.10
7192;DHT22;3637;51.494;11.958;2022-09-27T19:21:58;12.30;96.20
7192;DHT22;3637;51.494;11.958;2022-09-27T19:25:00;12.30;96.20
7192;DHT22;3637;51.494;11.958;2022-09-27T19:28:02;12.20;96.40
7192;DHT22;3637;51.494;11.958;2022-09-27T19:31:04;12.10;96.60
7192;DHT22;3637;51.494;11.958;2022-09-27T19:34:06;12.10;97.00
7192;DHT22;3637;51.494;11.958;2022-09-27T19:37:09;12.10;97.00
7192;DHT22;3637;51.494;11.958;2022-09-27T19:40:11;12.10;96.90
7192;DHT22;3637;51.494;11.958;2022-09-27T19:43:13;12.10;96.80
7192;DHT22;3637;51.494;11.958;2022-09-27T19:46:16;12.10;96.70
7192;DHT22;3637;51.494;11.958;2022-09-27T19:49:18;12.10;96.80
7192;DHT22;3637;51.494;11.958;2022-09-27T19:52:21;12.10;97.00
7192;DHT22;3637;51.494;11.958;2022-09-27T19:55:23;12.10;97.10
7192;DHT22;3637;51.494;11.958;2022-09-27T19:58:26;12.10;96.90
7192;DHT22;3637;51.494;11.958;2022-09-27T20:01:28;12.10;96.70
7192;DHT22;3637;51.494;11.958;2022-09-27T20:04:29;12.10;96.90
7192;DHT22;3637;51.494;11.958;2022-09-27T20:07:33;12.10;97.00